Terminal Aerodrome Forecast
Issued by NWS

Home | Current Version | Previous Version | Text Only | Print | Product List | Glossary On
Versions: 1 2 3 4 5 6 7 8 9 10 11 12 13 14 15 16 17
000
FTUS45 KBYZ 230208 AAA
TAFLVM
TAF AMD
KLVM 230208Z 2302/2324 10010KT P6SM VCSH BKN050 BKN100
     FM230600 05010KT 2SM -SN BKN020 OVC040
     FM231200 05010KT 1 1/2SM -SN BR SCT007 OVC012
     FM231500 06010KT 1/2SM SN FG SCT004 BKN007 OVC012=

USA.gov is the U.S. government's official web portal to all federal, state and local government web resources and services.